Terminal Aerodrome Forecast
Issued by NWS

Home | Current Version | Previous Version | Graphics & Text | Print | Product List | Glossary On
Versions: 1 2 3 4 5 6 7 8 9 10 11 12 13 14 15 16 17
331
FTUS43 KMPX 151120
TAFAXN
TAF
KAXN 151120Z 1512/1612 12007KT P6SM SCT250
     FM151700 14010KT P6SM BKN120 OVC250
     FM160300 12012KT P6SM VCSH OVC040
     FM160800 15012KT 5SM SHRA VCTS BKN008 OVC015CB=

USA.gov is the U.S. government's official web portal to all federal, state and local government web resources and services.